createdAt,value
2018-04-08T00:01:03.983Z,61.79
2018-04-08T00:03:54.231Z,61.85
2018-04-08T00:06:22.563Z,61.76
2018-04-08T00:08:50.898Z,60.63
2018-04-08T00:11:19.259Z,60.94
2018-04-08T00:13:47.656Z,61.32
2018-04-08T00:16:15.978Z,61.97
2018-04-08T00:18:44.388Z,61.61
2018-04-08T00:21:12.800Z,61.77
2018-04-08T00:23:41.158Z,62.63
2018-04-08T00:26:09.475Z,61.93
2018-04-08T00:28:37.888Z,61.64
2018-04-08T00:31:06.207Z,61.38
2018-04-08T00:33:34.574Z,61.59
2018-04-08T00:36:02.950Z,61.93
2018-04-08T00:38:31.339Z,61.87
2018-04-08T00:40:59.703Z,62.18
2018-04-08T00:43:28.199Z,62.59
2018-04-08T00:45:56.580Z,63.56
2018-04-08T00:48:24.929Z,63.84
2018-04-08T00:50:53.320Z,63.58
2018-04-08T00:53:21.640Z,64.15
2018-04-08T00:55:49.980Z,63.28
2018-04-08T00:58:18.310Z,63.48
2018-04-08T01:00:46.774Z,63.43
2018-04-08T01:03:15.082Z,63.45
2018-04-08T01:05:43.434Z,63.65
2018-04-08T01:08:11.773Z,63.87
2018-04-08T01:10:40.156Z,63.78
2018-04-08T01:13:08.495Z,63.58
2018-04-08T01:15:36.818Z,64.36
2018-04-08T01:18:05.135Z,64.16
2018-04-08T01:20:33.499Z,64.07
2018-04-08T01:23:01.813Z,64.66
2018-04-08T01:25:30.134Z,64.17
2018-04-08T01:27:58.484Z,64.59
2018-04-08T01:30:26.992Z,64.53
2018-04-08T01:32:55.450Z,64.28
2018-04-08T01:35:24.750Z,64.61
2018-04-08T01:37:53.102Z,64.77
2018-04-08T01:40:21.514Z,65.10
2018-04-08T01:42:49.978Z,65.50
2018-04-08T01:45:18.334Z,65.29
2018-04-08T01:47:46.692Z,65.55
2018-04-08T01:50:15.018Z,64.99
2018-04-08T01:52:43.397Z,65.09
2018-04-08T01:55:11.734Z,65.22
2018-04-08T01:57:40.172Z,65.24
2018-04-08T02:00:08.499Z,65.84
2018-04-08T02:02:36.921Z,65.98
2018-04-08T02:05:05.253Z,66.37
2018-04-08T02:07:33.666Z,66.55
2018-04-08T02:10:02.765Z,66.90
2018-04-08T02:12:31.134Z,67.92
2018-04-08T02:14:59.470Z,69.02
2018-04-08T02:17:27.782Z,68.62
2018-04-08T02:19:56.171Z,67.52
2018-04-08T02:22:24.551Z,67.78
2018-04-08T02:24:52.898Z,67.50
2018-04-08T02:27:21.244Z,67.64
2018-04-08T02:29:49.694Z,68.05
2018-04-08T02:32:18.067Z,67.64
2018-04-08T02:34:46.446Z,67.21
2018-04-08T02:37:14.776Z,67.65
2018-04-08T02:39:43.141Z,67.52
2018-04-08T02:42:11.465Z,67.51
2018-04-08T02:44:39.829Z,67.68
2018-04-08T02:47:08.148Z,67.65
2018-04-08T02:49:36.492Z,68.38
2018-04-08T02:52:04.825Z,68.44
2018-04-08T02:54:33.170Z,68.66
2018-04-08T02:57:01.493Z,69.33
2018-04-08T02:59:29.839Z,69.44
2018-04-08T03:01:58.187Z,69.22
2018-04-08T03:04:26.527Z,69.57
2018-04-08T03:06:54.852Z,69.60
2018-04-08T03:09:23.208Z,69.84
2018-04-08T03:11:51.537Z,68.83
2018-04-08T03:14:19.882Z,69.25
2018-04-08T03:16:48.209Z,69.32
2018-04-08T03:19:16.547Z,69.24
2018-04-08T03:21:44.893Z,69.98
2018-04-08T03:24:13.239Z,69.73
2018-04-08T03:26:41.590Z,69.66
2018-04-08T03:29:09.954Z,69.71
2018-04-08T03:31:38.276Z,69.74
2018-04-08T03:34:06.646Z,69.76
2018-04-08T03:36:34.987Z,69.95
2018-04-08T03:39:03.314Z,69.44
2018-04-08T03:41:31.739Z,69.33
2018-04-08T03:44:00.067Z,69.44
2018-04-08T03:46:28.412Z,70.44
2018-04-08T03:48:56.894Z,70.66
2018-04-08T03:51:25.230Z,70.13
2018-04-08T03:53:53.550Z,69.97
2018-04-08T03:56:21.890Z,70.16
2018-04-08T03:58:50.227Z,69.74
2018-04-08T04:01:18.570Z,70.07
2018-04-08T04:03:46.893Z,69.98
2018-04-08T04:06:15.235Z,70.12
2018-04-08T04:08:43.561Z,70.46
2018-04-08T04:11:11.896Z,70.25
2018-04-08T04:13:40.235Z,70.26
2018-04-08T04:16:08.591Z,70.64
2018-04-08T04:18:48.773Z,70.45
2018-04-08T04:21:28.962Z,70.63
2018-04-08T04:24:09.409Z,71.11
2018-04-08T04:26:37.878Z,71.01
2018-04-08T04:29:06.223Z,70.80
2018-04-08T04:31:34.579Z,71.10
2018-04-08T04:34:02.901Z,70.98
2018-04-08T04:36:31.270Z,71.38
2018-04-08T04:38:59.647Z,71.60
2018-04-08T04:41:28.047Z,71.38
2018-04-08T04:43:56.422Z,71.21
2018-04-08T04:46:24.755Z,71.77
2018-04-08T04:48:53.094Z,71.59
2018-04-08T04:51:21.430Z,73.21
2018-04-08T04:53:50.136Z,72.32
2018-04-08T04:56:18.470Z,72.01
2018-04-08T04:58:46.829Z,71.62
2018-04-08T05:01:15.149Z,71.54
2018-04-08T05:03:43.499Z,72.22
2018-04-08T05:06:11.838Z,72.34
2018-04-08T05:08:40.206Z,71.60
2018-04-08T05:11:08.528Z,72.01
2018-04-08T05:13:36.950Z,72.26
2018-04-08T05:16:05.287Z,72.01
2018-04-08T05:18:33.643Z,71.79
2018-04-08T05:21:01.973Z,71.52
2018-04-08T05:23:30.306Z,71.40
2018-04-08T05:25:58.654Z,71.53
2018-04-08T05:28:26.986Z,71.01
2018-04-08T05:30:55.324Z,71.05
2018-04-08T05:33:23.674Z,70.95
2018-04-08T05:35:51.999Z,71.55
2018-04-08T05:38:20.318Z,71.65
2018-04-08T05:40:48.665Z,73.04
2018-04-08T05:43:17.000Z,73.37
2018-04-08T05:45:45.334Z,72.48
2018-04-08T05:48:13.664Z,71.35
2018-04-08T05:50:42.231Z,70.88
2018-04-08T05:53:10.618Z,70.81
2018-04-08T05:55:39.404Z,70.43
2018-04-08T05:58:07.869Z,70.87
2018-04-08T06:00:36.182Z,70.16
2018-04-08T06:03:04.508Z,69.98
2018-04-08T06:05:32.858Z,69.55
2018-04-08T06:08:01.174Z,69.41
2018-04-08T06:10:29.602Z,70.26
2018-04-08T06:12:57.898Z,69.69
2018-04-08T06:15:26.318Z,70.06
2018-04-08T06:17:54.650Z,69.52
2018-04-08T06:20:23.118Z,69.15
2018-04-08T06:22:51.430Z,69.28
2018-04-08T06:25:19.773Z,69.01
2018-04-08T06:27:48.081Z,68.59
2018-04-08T06:30:16.423Z,68.82
2018-04-08T06:32:44.739Z,69.20
2018-04-08T06:35:13.086Z,69.64
2018-04-08T06:37:41.463Z,68.33
2018-04-08T06:40:09.778Z,68.61
2018-04-08T06:42:38.135Z,69.34
2018-04-08T06:45:06.542Z,68.61
2018-04-08T06:47:35.887Z,67.54
2018-04-08T06:50:04.239Z,67.12
2018-04-08T06:52:32.610Z,67.29
2018-04-08T06:55:01.000Z,67.59
2018-04-08T06:57:29.346Z,66.48
2018-04-08T06:59:57.661Z,66.45
2018-04-08T07:02:26.062Z,66.68
2018-04-08T07:04:54.366Z,66.00
2018-04-08T07:07:22.813Z,66.06
2018-04-08T07:09:51.119Z,65.69
2018-04-08T07:12:19.467Z,65.64
2018-04-08T07:14:47.778Z,65.49
2018-04-08T07:17:16.119Z,65.24
2018-04-08T07:19:44.447Z,64.03
2018-04-08T07:22:12.782Z,64.15
2018-04-08T07:24:41.149Z,64.00
2018-04-08T07:27:09.455Z,64.17
2018-04-08T07:29:37.778Z,64.32
2018-04-08T07:32:06.136Z,64.46
2018-04-08T07:34:34.530Z,64.20
2018-04-08T07:37:02.898Z,62.75
2018-04-08T07:39:31.323Z,62.50
2018-04-08T07:41:59.621Z,62.03
2018-04-08T07:44:27.977Z,61.76
2018-04-08T07:46:56.316Z,61.62
2018-04-08T07:49:24.665Z,61.80
2018-04-08T07:51:52.999Z,61.25
2018-04-08T07:54:21.353Z,60.86
2018-04-08T07:56:49.689Z,60.71
2018-04-08T07:59:18.099Z,60.55
2018-04-08T08:01:46.910Z,60.30
2018-04-08T08:04:15.278Z,59.95
2018-04-08T08:06:43.647Z,60.12
2018-04-08T08:09:12.010Z,59.68
2018-04-08T08:11:40.405Z,58.73
2018-04-08T08:14:08.764Z,58.45
2018-04-08T08:16:37.097Z,58.25
2018-04-08T08:19:05.442Z,58.29
2018-04-08T08:21:33.765Z,57.71
2018-04-08T08:24:02.115Z,57.82
2018-04-08T08:26:30.484Z,57.24
2018-04-08T08:28:58.846Z,56.88
2018-04-08T08:31:27.188Z,56.53
2018-04-08T08:33:55.605Z,57.08
2018-04-08T08:36:23.959Z,57.00
2018-04-08T08:38:52.331Z,56.38
2018-04-08T08:41:20.750Z,56.25
2018-04-08T08:43:49.187Z,56.33
2018-04-08T08:46:17.614Z,54.97
2018-04-08T08:48:45.958Z,55.16
2018-04-08T08:51:14.302Z,55.08
2018-04-08T08:53:42.664Z,54.36
2018-04-08T08:56:11.018Z,53.25
2018-04-08T08:58:39.430Z,52.80
2018-04-08T09:01:07.781Z,52.63
2018-04-08T09:03:36.591Z,51.85
2018-04-08T09:06:04.939Z,51.71
2018-04-08T09:08:33.317Z,51.17
2018-04-08T09:11:01.653Z,50.71
2018-04-08T09:13:29.967Z,50.73
2018-04-08T09:15:58.319Z,50.75
2018-04-08T09:18:26.718Z,51.22
2018-04-08T09:24:05.853Z,51.12
2018-04-08T09:26:34.180Z,49.83
2018-04-08T09:29:02.532Z,50.84
2018-04-08T09:31:30.858Z,51.46
2018-04-08T09:33:59.214Z,50.59
2018-04-08T09:36:27.603Z,51.16
2018-04-08T09:38:55.944Z,50.33
2018-04-08T09:41:24.334Z,49.93
2018-04-08T09:43:52.686Z,49.78
2018-04-08T09:46:21.030Z,49.39
2018-04-08T09:48:49.380Z,50.00
2018-04-08T09:51:17.754Z,49.50
2018-04-08T09:53:46.114Z,49.25
2018-04-08T09:56:14.449Z,48.93
2018-04-08T09:58:42.791Z,48.69
2018-04-08T10:01:26.710Z,48.60
2018-04-08T10:03:55.040Z,48.13
2018-04-08T10:06:23.371Z,47.97
2018-04-08T10:08:51.763Z,47.20
2018-04-08T10:11:20.083Z,46.17
2018-04-08T10:13:48.457Z,46.37
2018-04-08T10:16:16.774Z,46.37
2018-04-08T10:18:45.114Z,45.19
2018-04-08T10:21:13.477Z,45.40
2018-04-08T10:23:41.810Z,45.94
2018-04-08T10:26:10.174Z,46.43
2018-04-08T10:28:38.604Z,46.97
2018-04-08T10:31:06.938Z,45.68
2018-04-08T10:33:35.276Z,44.58
2018-04-08T10:36:04.539Z,45.08
2018-04-08T10:38:32.890Z,44.52
2018-04-08T10:41:01.504Z,44.82
2018-04-08T10:43:29.974Z,44.01
2018-04-08T10:45:58.331Z,42.95
2018-04-08T10:48:26.721Z,43.25
2018-04-08T10:50:55.067Z,42.64
2018-04-08T10:53:23.425Z,40.41
2018-04-08T10:55:51.303Z,40.91
2018-04-08T10:58:19.240Z,41.93
2018-04-08T11:00:47.109Z,42.13
2018-04-08T11:03:14.856Z,41.59
2018-04-08T11:05:43.078Z,41.34
2018-04-08T11:08:11.494Z,41.07
2018-04-08T11:10:39.946Z,40.22
2018-04-08T11:13:08.293Z,39.79
2018-04-08T11:15:37.585Z,38.98
2018-04-08T11:18:05.894Z,38.25
2018-04-08T11:20:34.235Z,37.62
2018-04-08T11:23:02.717Z,37.52
2018-04-08T11:25:31.082Z,36.86
2018-04-08T11:27:59.468Z,36.04
2018-04-08T11:30:27.825Z,34.43
2018-04-08T11:32:56.138Z,33.79
2018-04-08T11:35:24.459Z,34.45
2018-04-08T11:37:52.808Z,33.33
2018-04-08T11:40:21.127Z,31.76
2018-04-08T11:42:49.466Z,30.21
2018-04-08T11:45:17.806Z,30.14
2018-04-08T11:47:46.118Z,31.03
2018-04-08T11:50:14.455Z,29.99
2018-04-08T11:52:42.812Z,29.75
2018-04-08T11:55:11.205Z,29.37
2018-04-08T11:57:39.593Z,28.56
2018-04-08T12:00:07.927Z,27.86
2018-04-08T12:02:36.251Z,28.23
2018-04-08T12:05:04.596Z,26.89
2018-04-08T12:07:33.183Z,25.65
2018-04-08T12:10:01.515Z,25.84
2018-04-08T12:12:29.827Z,25.02
2018-04-08T12:14:58.180Z,23.97
2018-04-08T12:17:26.594Z,23.54
2018-04-08T12:19:55.036Z,23.89
2018-04-08T12:22:23.443Z,24.09
2018-04-08T12:24:51.774Z,22.90
2018-04-08T12:27:20.117Z,21.62
2018-04-08T12:29:49.602Z,21.21
2018-04-08T12:32:17.906Z,21.44
2018-04-08T12:34:46.250Z,21.51
2018-04-08T12:37:14.574Z,21.19
2018-04-08T12:39:42.894Z,20.85
2018-04-08T12:42:11.223Z,20.35
2018-04-08T12:44:39.566Z,19.51
2018-04-08T12:47:07.977Z,19.75
2018-04-08T12:49:36.321Z,19.28
2018-04-08T12:52:04.733Z,19.30
2018-04-08T12:54:33.051Z,19.73
2018-04-08T12:57:01.383Z,20.13
2018-04-08T12:59:29.702Z,19.76
2018-04-08T13:01:58.130Z,19.27
2018-04-08T13:04:26.474Z,18.50
2018-04-08T13:06:54.806Z,18.60
2018-04-08T13:09:23.150Z,18.95
2018-04-08T13:11:51.517Z,19.12
2018-04-08T13:14:19.882Z,18.81
2018-04-08T13:16:48.212Z,17.99
2018-04-08T13:19:16.547Z,19.19
2018-04-08T13:21:44.877Z,19.34
2018-04-08T13:24:13.221Z,17.67
2018-04-08T13:26:41.557Z,17.74
2018-04-08T13:29:09.908Z,17.10
2018-04-08T13:31:38.267Z,18.00
2018-04-08T13:34:06.633Z,17.73
2018-04-08T13:36:34.967Z,17.46
2018-04-08T13:39:03.304Z,17.20
2018-04-08T13:41:31.654Z,17.43
2018-04-08T13:44:00.033Z,16.29
2018-04-08T13:46:28.362Z,16.23
2018-04-08T13:48:56.694Z,16.30
2018-04-08T13:51:25.115Z,16.13
2018-04-08T13:53:53.488Z,15.78
2018-04-08T13:56:21.830Z,16.26
2018-04-08T13:58:50.154Z,16.23
2018-04-08T14:01:18.490Z,16.52
2018-04-08T14:03:46.997Z,15.92
2018-04-08T14:06:15.307Z,16.01
2018-04-08T14:08:43.714Z,16.41
2018-04-08T14:11:12.059Z,16.32
2018-04-08T14:13:40.391Z,16.23
2018-04-08T14:16:08.699Z,16.15
2018-04-08T14:18:37.062Z,16.40
2018-04-08T14:21:05.405Z,16.38
2018-04-08T14:23:33.778Z,15.13
2018-04-08T14:26:02.110Z,15.96
2018-04-08T14:28:30.434Z,17.03
2018-04-08T14:30:58.758Z,17.00
2018-04-08T14:33:27.086Z,16.98
2018-04-08T14:35:55.420Z,17.31
2018-04-08T14:38:23.749Z,17.03
2018-04-08T14:40:52.136Z,17.68
2018-04-08T14:43:20.453Z,18.06
2018-04-08T14:45:48.801Z,17.52
2018-04-08T14:48:17.133Z,17.04
2018-04-08T14:50:45.467Z,17.78
2018-04-08T14:53:13.782Z,17.46
2018-04-08T14:55:42.155Z,17.25
2018-04-08T14:58:10.562Z,17.21
2018-04-08T15:00:38.899Z,16.13
2018-04-08T15:03:07.338Z,16.74
2018-04-08T15:05:35.655Z,16.85
2018-04-08T15:08:04.082Z,17.92
2018-04-08T15:10:32.448Z,18.33
2018-04-08T15:13:00.760Z,18.08
2018-04-08T15:15:29.082Z,18.81
2018-04-08T15:17:57.486Z,18.80
2018-04-08T15:20:25.870Z,18.69
2018-04-08T15:22:54.224Z,18.52
2018-04-08T15:25:22.563Z,19.76
2018-04-08T15:27:50.890Z,19.72
2018-04-08T15:30:19.241Z,19.99
2018-04-08T15:32:47.711Z,19.74
2018-04-08T15:35:16.031Z,18.96
2018-04-08T15:37:44.355Z,19.45
2018-04-08T15:40:12.790Z,19.62
2018-04-08T15:42:41.110Z,20.23
2018-04-08T15:45:09.456Z,19.86
2018-04-08T15:47:37.868Z,19.09
2018-04-08T15:50:06.211Z,20.85
2018-04-08T15:52:34.527Z,20.92
2018-04-08T15:55:02.901Z,20.63
2018-04-08T15:57:31.210Z,21.20
2018-04-08T15:59:59.557Z,21.11
2018-04-08T16:02:27.887Z,20.90
2018-04-08T16:04:56.207Z,20.59
2018-04-08T16:07:24.538Z,22.61
2018-04-08T16:09:53.003Z,21.70
2018-04-08T16:12:21.319Z,22.29
2018-04-08T16:14:49.643Z,22.01
2018-04-08T16:17:17.978Z,22.35
2018-04-08T16:19:46.321Z,22.32
2018-04-08T16:22:14.650Z,22.82
2018-04-08T16:24:42.970Z,23.01
2018-04-08T16:27:11.318Z,23.06
2018-04-08T16:29:39.656Z,23.02
2018-04-08T16:32:08.066Z,23.78
2018-04-08T16:34:36.382Z,23.60
2018-04-08T16:37:04.742Z,23.86
2018-04-08T16:39:33.072Z,24.16
2018-04-08T16:42:01.430Z,24.04
2018-04-08T16:44:29.766Z,24.51
2018-04-08T16:46:58.099Z,24.51
2018-04-08T16:49:26.481Z,26.19
2018-04-08T16:51:54.851Z,27.73
2018-04-08T16:54:23.226Z,28.12
2018-04-08T16:56:51.621Z,29.26
2018-04-08T16:59:20.009Z,29.97
2018-04-08T17:01:48.334Z,30.82
2018-04-08T17:04:16.725Z,31.39
2018-04-08T17:06:45.066Z,32.32
2018-04-08T17:09:13.418Z,33.04
2018-04-08T17:11:41.748Z,33.06
2018-04-08T17:14:10.092Z,34.43
2018-04-08T17:16:37.960Z,34.83
2018-04-08T17:19:06.176Z,35.52
2018-04-08T17:21:34.516Z,35.88
2018-04-08T17:24:02.880Z,36.62
2018-04-08T17:26:31.197Z,37.15
2018-04-08T17:28:59.541Z,37.48
2018-04-08T17:31:27.856Z,37.75
2018-04-08T17:33:56.206Z,38.03
2018-04-08T17:36:24.546Z,38.84
2018-04-08T17:38:52.868Z,38.75
2018-04-08T17:41:21.223Z,39.30
2018-04-08T17:43:49.558Z,39.49
2018-04-08T17:46:17.940Z,39.46
2018-04-08T17:48:46.312Z,39.89
2018-04-08T17:51:14.640Z,39.88
2018-04-08T17:53:43.012Z,40.15
2018-04-08T17:56:11.310Z,40.66
2018-04-08T17:58:39.746Z,40.82
2018-04-08T18:01:08.120Z,40.88
2018-04-08T18:03:36.421Z,40.85
2018-04-08T18:06:04.763Z,40.88
2018-04-08T18:08:33.080Z,41.02
2018-04-08T18:11:01.413Z,41.22
2018-04-08T18:13:29.752Z,41.37
2018-04-08T18:15:58.079Z,41.57
2018-04-08T18:18:26.391Z,41.88
2018-04-08T18:20:54.832Z,42.23
2018-04-08T18:23:23.161Z,42.30
2018-04-08T18:25:51.578Z,42.67
2018-04-08T18:28:19.960Z,42.42
2018-04-08T18:30:48.284Z,42.50
2018-04-08T18:33:16.636Z,42.30
2018-04-08T18:35:44.969Z,42.68
2018-04-08T18:38:13.294Z,42.78
2018-04-08T18:40:41.629Z,43.08
2018-04-08T18:43:09.968Z,43.36
2018-04-08T18:45:38.338Z,43.53
2018-04-08T18:48:06.665Z,43.40
2018-04-08T18:50:35.105Z,43.69
2018-04-08T18:53:03.461Z,44.00
2018-04-08T18:55:31.823Z,44.58
2018-04-08T18:58:00.174Z,44.60
2018-04-08T19:00:28.595Z,44.71
2018-04-08T19:02:56.957Z,44.89
2018-04-08T19:05:25.375Z,44.88
2018-04-08T19:07:53.697Z,44.77
2018-04-08T19:10:22.025Z,45.22
2018-04-08T19:12:50.401Z,45.18
2018-04-08T19:15:22.181Z,45.43
2018-04-08T19:17:56.279Z,46.06
2018-04-08T19:20:24.645Z,45.71
2018-04-08T19:22:52.985Z,45.68
2018-04-08T19:25:21.324Z,45.68
2018-04-08T19:27:49.758Z,46.02
2018-04-08T19:30:22.572Z,46.25
2018-04-08T19:32:50.919Z,46.67
2018-04-08T19:35:19.286Z,46.50
2018-04-08T19:37:47.675Z,46.58
2018-04-08T19:40:15.996Z,46.54
2018-04-08T19:42:44.418Z,47.06
2018-04-08T19:45:12.775Z,47.27
2018-04-08T19:47:41.126Z,47.50
2018-04-08T19:50:09.561Z,47.27
2018-04-08T19:52:37.918Z,47.51
2018-04-08T19:55:06.265Z,47.66
2018-04-08T19:57:35.347Z,47.93
2018-04-08T20:00:03.756Z,48.04
2018-04-08T20:02:32.170Z,48.13
2018-04-08T20:05:00.541Z,48.65
2018-04-08T20:07:28.922Z,48.65
2018-04-08T20:09:57.241Z,48.71
2018-04-08T20:12:25.582Z,48.77
2018-04-08T20:14:53.951Z,48.61
2018-04-08T20:17:22.331Z,49.13
2018-04-08T20:19:50.707Z,49.51
2018-04-08T20:22:19.105Z,49.80
2018-04-08T20:24:47.459Z,49.90
2018-04-08T20:27:15.811Z,49.80
2018-04-08T20:29:44.147Z,50.05
2018-04-08T20:32:12.598Z,49.89
2018-04-08T20:34:40.932Z,50.27
2018-04-08T20:37:09.406Z,50.84
2018-04-08T20:39:37.732Z,51.16
2018-04-08T20:42:06.054Z,51.56
2018-04-08T20:44:34.498Z,51.92
2018-04-08T20:47:02.816Z,52.08
2018-04-08T20:49:31.287Z,52.37
2018-04-08T20:51:59.625Z,52.08
2018-04-08T20:54:28.002Z,52.28
2018-04-08T20:56:56.387Z,52.46
2018-04-08T20:59:24.733Z,52.53
2018-04-08T21:01:53.052Z,52.99
2018-04-08T21:04:21.448Z,52.81
2018-04-08T21:06:49.835Z,53.36
2018-04-08T21:09:18.267Z,53.01
2018-04-08T21:11:46.648Z,53.58
2018-04-08T21:14:15.035Z,54.16
2018-04-08T21:16:43.364Z,54.74
2018-04-08T21:19:11.708Z,55.18
2018-04-08T21:21:39.566Z,55.05
2018-04-08T21:24:07.825Z,55.01
2018-04-08T21:26:36.141Z,55.24
2018-04-08T21:29:04.485Z,55.39
2018-04-08T21:31:32.811Z,55.75
2018-04-08T21:34:02.005Z,55.68
2018-04-08T21:36:30.325Z,56.29
2018-04-08T21:38:58.722Z,56.72
2018-04-08T21:41:27.171Z,56.25
2018-04-08T21:43:55.490Z,56.41
2018-04-08T21:46:23.959Z,56.23
2018-04-08T21:48:52.300Z,56.80
2018-04-08T21:51:20.634Z,56.89
2018-04-08T21:53:48.958Z,57.80
2018-04-08T21:56:17.378Z,57.69
2018-04-08T21:58:45.678Z,57.63
2018-04-08T22:01:14.815Z,57.89
2018-04-08T22:03:43.210Z,57.88
2018-04-08T22:06:11.587Z,57.81
2018-04-08T22:08:39.920Z,57.77
2018-04-08T22:11:08.352Z,57.70
2018-04-08T22:13:36.681Z,57.83
2018-04-08T22:16:05.039Z,59.08
2018-04-08T22:18:33.362Z,59.13
2018-04-08T22:21:01.763Z,58.84
2018-04-08T22:23:30.098Z,58.52
2018-04-08T22:25:58.506Z,58.69
2018-04-08T22:28:26.835Z,58.84
2018-04-08T22:30:55.277Z,59.94
2018-04-08T22:33:23.836Z,60.19
2018-04-08T22:35:52.273Z,60.28
2018-04-08T22:38:20.578Z,60.47
2018-04-08T22:40:49.028Z,60.04
2018-04-08T22:43:17.370Z,59.42
2018-04-08T22:45:45.731Z,59.41
2018-04-08T22:48:14.050Z,59.63
2018-04-08T22:50:42.372Z,59.55
2018-04-08T22:53:10.733Z,60.00
2018-04-08T22:55:39.054Z,60.78
2018-04-08T22:58:07.429Z,60.58
2018-04-08T23:00:35.759Z,61.05
2018-04-08T23:03:04.103Z,61.42
2018-04-08T23:05:37.538Z,62.16
2018-04-08T23:08:06.126Z,62.00
2018-04-08T23:10:34.447Z,63.43
2018-04-08T23:13:02.800Z,63.86
2018-04-08T23:15:31.207Z,64.12
2018-04-08T23:17:59.579Z,63.98
2018-04-08T23:20:27.918Z,63.26
2018-04-08T23:22:56.269Z,63.41
2018-04-08T23:25:24.582Z,63.48
2018-04-08T23:27:52.930Z,64.10
2018-04-08T23:30:21.251Z,63.80
2018-04-08T23:32:49.594Z,63.93
2018-04-08T23:35:17.922Z,63.10
2018-04-08T23:37:46.270Z,62.85
2018-04-08T23:40:14.606Z,63.08
2018-04-08T23:42:42.997Z,63.31
2018-04-08T23:45:11.324Z,63.13
2018-04-08T23:47:39.708Z,64.01
2018-04-08T23:50:08.070Z,64.63
2018-04-08T23:52:36.469Z,64.94
2018-04-08T23:55:04.847Z,65.32
2018-04-08T23:57:33.459Z,64.09
